Flight Track Log - Related Links

Times and Time Zones

All times are in EDT time to prevent confusion due to time zone crossing. See the AWE659 flight status page for this flight to view local times or setup timezone preferences in your user account.

Time Position Orientation Groundspeed Altitude Reporting Facility
EDT Latitude Longitude Course Direction KTS MPH feet Rate Location/Type
Tue 10:21:32 AM 39.8667 -75.2833 311° West 168 193 700  Level Philadelphia TRACON
Tue 10:22:50 AM 39.8500 -75.3667 255° West 228 262 2,800 2,130 Climbing Philadelphia TRACON
Tue 10:23:50 AM 39.8333 -75.4667 258° West 264 304 5,600 2,700 Climbing Philadelphia TRACON
Tue 10:24:00 AM 40.1447 -75.4947 323° Northwest  Level FlightAware Approximate
Tue 10:24:50 AM 39.8500 -75.5500 285° West 280 322 8,200  Level Philadelphia TRACON
Tue 10:25:00 AM 40.2360 -75.5790 311° West  Level FlightAware Approximate
Tue 10:25:50 AM 39.9333 -75.5500 360° North 315 362 10,300  Level Philadelphia TRACON
Tue 10:26:00 AM 40.3122 -75.6932 311° West  Level FlightAware Approximate
Tue 10:27:15 AM 40.0683 -75.5583 357° North 375 432 11,600  Level New York Center
Tue 10:28:16 AM 40.1972 -75.5672 357° North 396 456 13,000 1,438 Climbing New York Center
Tue 10:29:16 AM 40.2794 -75.6492 323° Northwest 401 461 14,500 1,664 Climbing New York Center
Tue 10:30:15 AM 40.3658 -75.7778 311° West 411 473 16,300 1,513 Climbing New York Center
Tue 10:31:15 AM 40.4397 -75.9006 308° West 423 487 17,500 1,041 Climbing New York Center
Tue 10:32:16 AM 40.4669 -76.0417 284° West 429 494 18,400 1,279 Climbing New York Center
Tue 10:33:17 AM 40.4903 -76.2125 280° West 429 494 20,100 1,311 Climbing New York Center
Tue 10:34:15 AM 40.5142 -76.3703 281° West 434 499 21,000 958 Climbing New York Center
Tue 10:35:16 AM 40.5400 -76.5306 282° West 444 511 22,000 1,082 Climbing New York Center
Tue 10:36:17 AM 40.5672 -76.6942 282° West 450 518 23,200 1,041 Climbing New York Center
Tue 10:37:17 AM 40.5967 -76.8553 284° West 455 524 24,100 763 Climbing New York Center
Tue 10:38:15 AM 40.6444 -77.0156 291° West 460 529 24,700 655 Climbing New York Center
Tue 10:39:16 AM 40.7244 -77.1597 306° West 480 552 25,400 541 Climbing New York Center
Tue 10:40:17 AM 40.8017 -77.3069 305° West 491 565 25,800 580 Climbing New York Center
Tue 10:42:43 AM 40.8653 -77.7222 282° West 466 536 27,400 670 Climbing Cleveland Center
Tue 10:43:43 AM 40.8861 -77.8914 279° West 472 543 28,100 900 Climbing Cleveland Center
Tue 10:44:43 AM 40.9086 -78.0581 280° West 467 537 29,200 1,050 Climbing Cleveland Center
Tue 10:45:43 AM 40.9286 -78.2194 279° West 462 532 30,200 950 Climbing Cleveland Center
Tue 10:46:43 AM 40.9528 -78.3836 281° West 462 532 31,100 800 Climbing Cleveland Center
Tue 10:47:43 AM 40.9725 -78.5453 279° West 462 532 31,800 450 Climbing Cleveland Center
Tue 10:48:43 AM 40.9897 -78.6933 279° West 462 532 32,000 100 Climbing Cleveland Center
Tue 10:49:43 AM 41.0111 -78.8633 280° West 467 537 32,000  Level Cleveland Center
Tue 10:50:43 AM 41.0300 -79.0281 279° West 467 537 32,000  Level Cleveland Center
Tue 10:51:43 AM 41.0489 -79.1956 279° West 467 537 32,000  Level Cleveland Center
Tue 10:52:43 AM 41.0697 -79.3603 280° West 467 537 32,000  Level Cleveland Center
Tue 10:53:43 AM 41.0881 -79.5253 278° West 467 537 32,000  Level Cleveland Center
Tue 10:54:43 AM 41.1061 -79.6958 278° West 467 537 32,000  Level Cleveland Center
Tue 10:55:44 AM 41.1258 -79.8608 279° West 467 537 32,000  Level Cleveland Center
Tue 10:56:43 AM 41.1456 -80.0261 279° West 467 537 32,000 403 Level Cleveland Center
Tue 10:57:43 AM 41.1631 -80.1914 278° West 462 532 32,800 1,000 Climbing Cleveland Center
Tue 10:58:43 AM 41.1803 -80.3733 277° West 462 532 34,000 600 Climbing Cleveland Center
Tue 10:59:43 AM 41.1992 -80.5389 279° West 462 532 34,000  Level Cleveland Center
Tue 11:00:43 AM 41.2158 -80.7017 278° West 456 525 34,000  Level Cleveland Center
Tue 11:01:43 AM 41.2300 -80.8453 278° West 451 519 34,000  Level Cleveland Center
Tue 11:02:43 AM 41.2464 -81.0056 278° West 446 513 34,000  Level Cleveland Center
Tue 11:03:43 AM 41.2622 -81.1686 277° West 446 513 34,000  Level Cleveland Center
Tue 11:04:43 AM 41.2781 -81.3347 277° West 451 519 34,000  Level Cleveland Center
Tue 11:05:43 AM 41.2975 -81.4925 279° West 451 519 34,000  Level Cleveland Center
Tue 11:06:43 AM 41.3128 -81.6583 277° West 445 512 34,000  Level Cleveland Center
Tue 11:07:43 AM 41.3322 -81.8164 279° West 445 512 34,000  Level Cleveland Center
Tue 11:08:43 AM 41.3906 -81.9975 293° West 454 522 34,000  Level Cleveland Center
Tue 11:09:43 AM 41.4492 -82.1317 300° West 474 545 34,000  Level Cleveland Center
Tue 11:10:43 AM 41.5158 -82.2831 300° West 480 552 34,000  Level Cleveland Center
Tue 11:11:43 AM 41.5800 -82.4375 299° West 480 552 34,000  Level Cleveland Center
Tue 11:12:43 AM 41.6464 -82.5894 300° West 474 545 34,000  Level Cleveland Center
Tue 11:13:43 AM 41.7083 -82.7414 299° West 469 540 34,000  Level Cleveland Center
Tue 11:14:43 AM 41.7719 -82.8939 299° West 469 540 34,000  Level Cleveland Center
Tue 11:15:43 AM 41.8375 -83.0469 300° West 469 540 34,000  Level Cleveland Center
Tue 11:16:43 AM 41.9089 -83.2172 299° West 469 540 34,000  Level Cleveland Center
Tue 11:17:43 AM 41.9739 -83.3733 299° West 480 552 34,000  Level Cleveland Center
Tue 11:18:43 AM 42.0367 -83.5300 298° West 480 552 34,000  Level Cleveland Center
Tue 11:19:43 AM 42.0936 -83.6697 299° West 475 547 34,000  Level Cleveland Center
Tue 11:20:43 AM 42.1581 -83.8269 299° West 475 547 34,000  Level Cleveland Center
Tue 11:21:43 AM 42.2203 -83.9817 299° West 475 547 34,000  Level Cleveland Center
Tue 11:22:43 AM 42.2842 -84.1394 299° West 475 547 34,000  Level Cleveland Center
Tue 11:23:43 AM 42.3481 -84.2947 299° West 475 547 34,000  Level Cleveland Center
Tue 11:25:07 AM 42.4261 -84.5297 294° West 468 539 34,000  Level Chicago Center
Tue 11:26:09 AM 42.4411 -84.7017 277° West 462 532 34,000  Level Chicago Center
Tue 11:27:10 AM 42.4453 -84.8719 272° West 458 527 34,000  Level Chicago Center
Tue 11:28:12 AM 42.4494 -85.0422 272° West 458 527 34,000  Level Chicago Center
Tue 11:29:14 AM 42.4522 -85.2119 271° West 455 524 34,000  Level Chicago Center
Tue 11:30:16 AM 42.4547 -85.3800 271° West 452 520 34,000  Level Chicago Center
Tue 11:31:17 AM 42.4578 -85.5831 271° West 453 521 34,000  Level Chicago Center
Tue 11:32:19 AM 42.4594 -85.7522 271° West 454 522 34,000  Level Chicago Center
Tue 11:33:21 AM 42.4606 -85.9208 271° West 453 521 34,000  Level Chicago Center
Tue 11:34:22 AM 42.4625 -86.0897 271° West 452 520 34,000  Level Chicago Center
Tue 11:35:24 AM 42.4633 -86.2592 270° West 453 521 34,000  Level Chicago Center
Tue 11:36:26 AM 42.4639 -86.4283 270° West 452 520 34,000  Level Chicago Center
Tue 11:37:27 AM 42.4644 -86.6306 270° West 451 519 34,000  Level Chicago Center
Tue 11:38:29 AM 42.4647 -86.7800 270° West 451 519 34,000  Level Chicago Center
Tue 11:39:31 AM 42.4639 -86.9833 270° West 454 522 34,000  Level Chicago Center
Tue 11:40:33 AM 42.4639 -87.1542 270° West 457 526 34,000  Level Chicago Center
Tue 11:41:34 AM 42.4633 -87.3219 270° West 454 522 34,000  Level Chicago Center
Tue 11:42:36 AM 42.4628 -87.4928 270° West 459 528 34,000  Level Chicago Center
Tue 11:43:38 AM 42.4611 -87.6661 269° West 465 535 34,000  Level Chicago Center
Tue 11:44:40 AM 42.4583 -87.8686 269° West 467 537 34,000  Level Chicago Center
Tue 11:45:41 AM 42.4569 -88.0472 269° West 472 543 34,000  Level Chicago Center
Tue 11:46:43 AM 42.4567 -88.2189 270° West 461 531 34,000  Level Chicago Center
Tue 11:47:45 AM 42.4536 -88.3961 269° West 466 536 34,000  Level Chicago Center
Tue 11:48:47 AM 42.4519 -88.5750 269° West 472 543 34,000  Level Chicago Center
Tue 11:49:49 AM 42.4489 -88.7508 269° West 470 541 34,000  Level Chicago Center
Tue 11:50:50 AM 42.4458 -88.9294 269° West 471 542 34,000  Level Chicago Center
Tue 11:51:52 AM 42.4419 -89.1392 269° West 475 547 34,000  Level Chicago Center
Tue 11:52:54 AM 42.4386 -89.3186 269° West 476 548 34,000  Level Chicago Center
Tue 11:53:56 AM 42.4342 -89.4981 268° West 476 548 34,000  Level Chicago Center
Tue 11:54:58 AM 42.4300 -89.6778 268° West 476 548 34,000  Level Chicago Center
Tue 11:55:59 AM 42.4258 -89.8594 268° West 479 551 34,000  Level Chicago Center
Tue 11:57:01 AM 42.4203 -90.0508 268° West 483 556 34,000  Level Chicago Center
Tue 11:58:03 AM 42.4161 -90.2308 268° West 484 557 34,000  Level Chicago Center
Tue 11:59:05 AM 42.4114 -90.4131 268° West 488 562 34,000 290 Level Chicago Center
Tue 12:00:07 PM 42.4053 -90.5942 267° West 486 559 34,600 774 Climbing Chicago Center
Tue 12:01:09 PM 42.4094 -90.8064 272° West 476 548 35,600 677 Climbing Chicago Center
Tue 12:02:11 PM 42.4222 -90.9825 276° West 473 544 36,000 194 Climbing Chicago Center
Tue 12:03:13 PM 42.4350 -91.1564 276° West 468 539 36,000  Level Chicago Center
Tue 12:04:15 PM 42.4467 -91.3308 275° West 468 539 36,000  Level Chicago Center
Tue 12:05:17 PM 42.4578 -91.5050 275° West 465 535 36,000  Level Chicago Center
Tue 12:06:19 PM 42.4694 -91.6800 275° West 464 534 36,000  Level Chicago Center
Tue 12:07:21 PM 42.4828 -91.8889 275° West 463 533 36,000  Level Chicago Center
Tue 12:08:23 PM 42.4933 -92.0619 275° West 463 533 36,000 49 Level Chicago Center
Tue 12:09:24 PM 42.5047 -92.2369 275° West 466 536 36,100  Climbing Chicago Center
Tue 12:10:26 PM 42.5150 -92.4094 275° West 463 533 36,000 -48 Descending Chicago Center
Tue 12:11:28 PM 42.5247 -92.5800 274° West 458 527 36,000  Level Chicago Center
Tue 12:12:04 PM 42.5303 -92.6839 274° West 459 528 36,000  Level Minneapolis Center
Tue 12:13:06 PM 42.5394 -92.8531 274° West 457 526 36,000  Level Minneapolis Center
Tue 12:14:20 PM 42.5508 -93.0586 274° West 457 526 36,000  Level Minneapolis Center
Tue 12:15:23 PM 42.5617 -93.2650 274° West 461 531 36,000  Level Minneapolis Center
Tue 12:16:25 PM 42.5706 -93.4375 274° West 462 532 36,000  Level Minneapolis Center
Tue 12:17:27 PM 42.5808 -93.6117 275° West 467 537 36,000  Level Minneapolis Center
Tue 12:18:29 PM 42.5892 -93.7847 274° West 468 539 36,000  Level Minneapolis Center
Tue 12:19:31 PM 42.5981 -93.9911 273° West 463 533 36,000  Level Minneapolis Center
Tue 12:20:33 PM 42.6058 -94.1628 274° West 461 531 36,000  Level Minneapolis Center
Tue 12:21:35 PM 42.6119 -94.3339 273° West 460 529 36,000  Level Minneapolis Center
Tue 12:22:49 PM 42.6086 -94.5067 269° West 463 533 36,000  Level Minneapolis Center
Tue 12:23:51 PM 42.6056 -94.7267 269° West 460 529 36,000  Level Minneapolis Center
Tue 12:24:53 PM 42.6025 -94.9000 269° West 461 531 36,000  Level Minneapolis Center
Tue 12:25:55 PM 42.5989 -95.0731 268° West 461 531 36,000  Level Minneapolis Center
Tue 12:26:57 PM 42.5944 -95.2817 268° West 462 532 36,000  Level Minneapolis Center
Tue 12:27:59 PM 42.5908 -95.4575 268° West 465 535 36,000  Level Minneapolis Center
Tue 12:29:01 PM 42.5867 -95.6308 268° West 462 532 36,000  Level Minneapolis Center
Tue 12:30:03 PM 42.5817 -95.8025 268° West 459 528 36,000  Level Minneapolis Center
Tue 12:31:05 PM 42.5775 -95.9733 268° West 457 526 36,000  Level Minneapolis Center
Tue 12:32:07 PM 42.5714 -96.1789 268° West 456 525 36,000  Level Minneapolis Center
Tue 12:33:09 PM 42.5664 -96.3500 268° West 456 525 36,000  Level Minneapolis Center
Tue 12:34:11 PM 42.5606 -96.5200 267° West 454 522 36,000  Level Minneapolis Center
Tue 12:35:13 PM 42.5556 -96.6872 268° West 448 516 36,000  Level Minneapolis Center
Tue 12:36:15 PM 42.5497 -96.8558 267° West 448 516 36,000  Level Minneapolis Center
Tue 12:37:18 PM 42.5433 -97.0269 267° West 452 520 36,000  Level Minneapolis Center
Tue 12:38:20 PM 42.5358 -97.2367 267° West 461 531 36,000  Level Minneapolis Center
Tue 12:39:22 PM 42.5283 -97.4083 267° West 460 529 36,000  Level Minneapolis Center
Tue 12:40:24 PM 42.5214 -97.5822 267° West 461 531 36,000  Level Minneapolis Center
Tue 12:41:26 PM 42.5142 -97.7558 267° West 464 534 36,000  Level Minneapolis Center
Tue 12:42:28 PM 42.5064 -97.9286 267° West 462 532 36,000  Level Minneapolis Center
Tue 12:43:30 PM 42.4953 -98.0981 265° West 456 525 36,000  Level Minneapolis Center
Tue 12:44:32 PM 42.4622 -98.3008 258° West 459 528 36,000  Level Minneapolis Center
Tue 12:45:34 PM 42.4339 -98.4708 257° West 463 533 36,000  Level Minneapolis Center
Tue 12:46:36 PM 42.4167 -98.6397 262° West 459 528 36,000  Level Minneapolis Center
Tue 12:47:38 PM 42.4519 -98.7992 287° West 444 511 36,000  Level Minneapolis Center
Tue 12:48:40 PM 42.4908 -98.9583 288° West 445 512 36,000  Level Minneapolis Center
Tue 12:49:42 PM 42.5289 -99.1172 288° West 445 512 36,000  Level Minneapolis Center
Tue 12:50:45 PM 42.5750 -99.3078 288° West 443 510 36,000  Level Minneapolis Center
Tue 12:51:37 PM 42.6094 -99.4478 289° West 444 511 36,000  Level Denver Center
Tue 12:52:39 PM 42.6464 -99.5972 289° West 441 507 36,000  Level Denver Center
Tue 12:53:41 PM 42.6508 -99.7883 272° West 469 540 36,000  Level Denver Center
Tue 12:54:43 PM 42.6081 -99.9567 251° West 484 557 36,000  Level Denver Center
Tue 12:55:45 PM 42.5572 -100.1464 250° West 484 557 36,000  Level Denver Center
Tue 12:56:47 PM 42.5139 -100.3089 250° West 482 555 36,000  Level Denver Center
Tue 12:57:49 PM 42.4622 -100.5017 250° West 485 558 36,000  Level Denver Center
Tue 12:58:51 PM 42.4175 -100.6667 250° West 488 562 36,000  Level Denver Center
Tue 12:59:53 PM 42.3733 -100.8342 250° West 491 565 36,000  Level Denver Center
Tue 01:00:55 PM 42.3203 -101.0258 250° West 492 566 36,000  Level Denver Center
Tue 01:01:57 PM 42.2744 -101.1919 250° West 494 568 36,000  Level Denver Center
Tue 01:02:59 PM 42.2214 -101.3867 250° West 497 572 36,000  Level Denver Center
Tue 01:04:01 PM 42.1739 -101.5525 249° West 498 573 36,000  Level Denver Center
Tue 01:05:03 PM 42.1194 -101.7458 249° West 495 570 36,000  Level Denver Center
Tue 01:06:06 PM 42.0717 -101.9122 249° West 499 574 36,000  Level Denver Center
Tue 01:07:08 PM 42.0172 -102.1072 249° West 500 575 36,000  Level Denver Center
Tue 01:08:10 PM 41.9667 -102.2803 249° West 504 580 36,000  Level Denver Center
Tue 01:09:12 PM 41.9111 -102.4725 249° West 499 574 36,000  Level Denver Center
Tue 01:10:14 PM 41.8628 -102.6378 249° West 497 572 36,000  Level Denver Center
Tue 01:11:16 PM 41.8044 -102.8317 248° West 500 575 36,000  Level Denver Center
Tue 01:12:18 PM 41.7625 -103.0006 252° West 501 577 36,000  Level Denver Center
Tue 01:13:20 PM 41.7319 -103.1697 256° West 494 568 36,000  Level Denver Center
Tue 01:14:22 PM 41.6939 -103.3664 256° West 490 564 36,000  Level Denver Center
Tue 01:15:24 PM 41.6614 -103.5339 255° West 486 559 36,000  Level Denver Center
Tue 01:16:26 PM 41.6233 -103.7289 255° West 484 557 36,000  Level Denver Center
Tue 01:17:28 PM 41.5900 -103.8950 255° West 484 557 36,000  Level Denver Center
Tue 01:18:30 PM 41.5506 -104.0886 255° West 481 554 36,000  Level Denver Center
Tue 01:19:32 PM 41.5169 -104.2553 255° West 484 557 36,000  Level Denver Center
Tue 01:20:35 PM 41.4786 -104.4469 255° West 478 550 36,000  Level Denver Center
Tue 01:21:37 PM 41.4444 -104.6122 255° West 481 554 36,000  Level Denver Center
Tue 01:22:39 PM 41.4044 -104.8050 255° West 480 552 36,000  Level Denver Center
Tue 01:23:41 PM 41.3700 -104.9689 254° West 482 555 36,000  Level Denver Center
Tue 01:24:43 PM 41.3344 -105.1333 254° West 482 555 36,000  Level Denver Center
Tue 01:25:45 PM 41.2939 -105.3231 254° West 479 551 36,000  Level Denver Center
Tue 01:26:47 PM 41.2592 -105.4864 254° West 478 550 36,000  Level Denver Center
Tue 01:27:49 PM 41.2189 -105.6747 254° West 476 548 36,000  Level Denver Center
Tue 01:28:51 PM 41.1839 -105.8369 254° West 476 548 36,000  Level Denver Center
Tue 01:29:53 PM 41.1414 -106.0267 253° West 479 551 36,000  Level Denver Center
Tue 01:30:55 PM 41.1050 -106.1875 253° West 479 551 36,000  Level Denver Center
Tue 01:31:57 PM 41.0636 -106.3764 254° West 477 549 36,000  Level Denver Center
Tue 01:32:59 PM 41.0272 -106.5378 253° West 478 550 36,000  Level Denver Center
Tue 01:34:01 PM 40.9858 -106.7242 254° West 475 547 36,000  Level Denver Center
Tue 01:35:03 PM 40.9483 -106.8861 253° West 479 551 36,000  Level Denver Center
Tue 01:36:05 PM 40.9050 -107.0728 253° West 477 549 36,000  Level Denver Center
Tue 01:37:08 PM 40.8683 -107.2325 253° West 476 548 36,000  Level Denver Center
Tue 01:38:10 PM 40.8300 -107.3939 253° West 480 552 36,000  Level Denver Center
Tue 01:39:12 PM 40.7853 -107.5819 253° West 480 552 36,000  Level Denver Center
Tue 01:40:14 PM 40.7481 -107.7442 253° West 481 554 36,000  Level Denver Center
Tue 01:41:16 PM 40.7000 -107.9417 252° West 484 557 36,000  Level Denver Center
Tue 01:42:18 PM 40.6611 -108.1031 252° West 483 556 36,000  Level Denver Center
Tue 01:43:20 PM 40.6219 -108.2636 252° West 483 556 36,000  Level Denver Center
Tue 01:44:22 PM 40.5758 -108.4517 252° West 484 557 36,000  Level Denver Center
Tue 01:45:24 PM 40.5361 -108.6119 252° West 483 556 36,000  Level Denver Center
Tue 01:46:26 PM 40.4903 -108.8006 252° West 486 559 36,000  Level Denver Center
Tue 01:47:28 PM 40.4497 -108.9617 252° West 486 559 36,000  Level Denver Center
Tue 01:48:30 PM 40.4022 -109.1486 252° West 487 560 36,000  Level Denver Center
Tue 01:49:32 PM 40.3617 -109.3094 252° West 487 560 36,000  Level Denver Center
Tue 01:50:34 PM 40.3136 -109.4972 252° West 487 560 36,000  Level Denver Center
Tue 01:51:36 PM 40.2722 -109.6586 251° West 490 564 36,000  Level Denver Center
Tue 01:52:38 PM 40.2228 -109.8458 251° West 489 563 36,000  Level Denver Center
Tue 01:53:40 PM 40.1808 -110.0075 251° West 490 564 36,000  Level Denver Center
Tue 01:54:43 PM 40.1283 -110.1942 250° West 490 564 36,000  Level Denver Center
Tue 01:55:45 PM 40.0731 -110.3489 245° Southwest 492 566 36,000  Level Denver Center
Tue 01:56:59 PM 40.0133 -110.5625 250° West 493 567 36,000  Level Denver Center
Tue 01:58:01 PM 39.9689 -110.7514 253° West 490 564 36,000  Level Salt Lake Center
Tue 01:59:03 PM 39.9297 -110.9128 252° West 490 564 36,000  Level Salt Lake Center
Tue 02:00:05 PM 39.8850 -111.1003 253° West 487 560 36,000  Level Salt Lake Center
Tue 02:01:07 PM 39.8439 -111.2614 252° West 489 563 36,000  Level Salt Lake Center
Tue 02:02:09 PM 39.8028 -111.4211 252° West 488 562 36,000  Level Salt Lake Center
Tue 02:03:11 PM 39.7533 -111.6181 252° West 488 562 36,000  Level Salt Lake Center
Tue 02:04:13 PM 39.7111 -111.7844 252° West 484 557 36,000  Level Salt Lake Center
Tue 02:05:15 PM 39.6697 -111.9511 252° West 484 557 36,000  Level Salt Lake Center
Tue 02:06:17 PM 39.6272 -112.1181 252° West 488 562 36,000  Level Salt Lake Center
Tue 02:07:19 PM 39.5839 -112.2850 251° West 489 563 36,000  Level Salt Lake Center
Tue 02:08:21 PM 39.5428 -112.4522 252° West 488 562 36,000  Level Salt Lake Center
Tue 02:09:23 PM 39.4986 -112.6169 251° West 485 558 36,000  Level Salt Lake Center
Tue 02:10:26 PM 39.4517 -112.7883 251° West 471 542 36,000  Level Salt Lake Center
Tue 02:11:28 PM 39.4092 -112.9531 252° West 482 555 36,000  Level Salt Lake Center
Tue 02:12:30 PM 39.3561 -113.1497 251° West 485 558 36,000  Level Salt Lake Center
Tue 02:13:32 PM 39.3119 -113.3153 251° West 490 564 36,000  Level Salt Lake Center
Tue 02:14:34 PM 39.2675 -113.4783 251° West 486 559 36,000  Level Salt Lake Center
Tue 02:15:36 PM 39.2239 -113.6417 251° West 485 558 36,000  Level Salt Lake Center
Tue 02:16:38 PM 39.1794 -113.8039 251° West 483 556 36,000  Level Salt Lake Center
Tue 02:17:40 PM 39.1347 -113.9664 251° West 483 556 36,000  Level Salt Lake Center
Tue 02:18:42 PM 39.0806 -114.1628 250° West 486 559 36,000  Level Salt Lake Center
Tue 02:19:44 PM 39.0358 -114.3219 250° West 477 549 36,000  Level Salt Lake Center
Tue 02:20:46 PM 38.9917 -114.4806 250° West 474 545 36,000  Level Salt Lake Center
Tue 02:21:48 PM 38.9458 -114.6397 250° West 476 548 36,000 -48 Level Salt Lake Center
Tue 02:22:50 PM 38.9003 -114.7969 250° West 473 544 35,900  Descending Salt Lake Center
Tue 02:23:52 PM 38.8483 -114.9856 251° West 471 542 36,000 48 Climbing Salt Lake Center
Tue 02:24:54 PM 38.8011 -115.1436 249° West 475 547 36,000  Level Salt Lake Center
Tue 02:25:56 PM 38.7547 -115.3025 250° West 478 550 36,000  Level Salt Lake Center
Tue 02:26:58 PM 38.7067 -115.4669 250° West 471 542 36,000  Level Salt Lake Center
Tue 02:28:00 PM 38.6600 -115.6256 249° West 474 545 36,000  Level Salt Lake Center
Tue 02:29:02 PM 38.6131 -115.7833 249° West 478 550 36,000  Level Salt Lake Center
Tue 02:30:04 PM 38.5661 -115.9419 249° West 476 548 36,000  Level Salt Lake Center
Tue 02:31:06 PM 38.5194 -116.0997 249° West 476 548 36,000  Level Salt Lake Center
Tue 02:31:48 PM 38.4808 -116.2256 249° West 474 545 36,000  Level Oakland Center
Tue 02:32:50 PM 38.4331 -116.3836 249° West 478 550 36,000  Level Oakland Center
Tue 02:33:51 PM 38.3856 -116.5403 249° West 475 547 36,000  Level Oakland Center
Tue 02:34:53 PM 38.3378 -116.6953 249° West 471 542 36,000  Level Oakland Center
Tue 02:35:55 PM 38.2919 -116.8481 249° West 465 535 36,000  Level Oakland Center
Tue 02:36:56 PM 38.2361 -117.0306 249° West 463 533 36,000  Level Oakland Center
Tue 02:37:58 PM 38.1892 -117.1786 248° West 463 533 36,000  Level Oakland Center
Tue 02:38:59 PM 38.1397 -117.3333 248° West 470 541 36,000  Level Oakland Center
Tue 02:40:01 PM 38.1078 -117.4836 255° West 468 539 36,000  Level Oakland Center
Tue 02:41:02 PM 38.0875 -117.6458 261° West 467 537 36,000  Level Oakland Center
Tue 02:42:04 PM 38.0631 -117.8397 261° West 466 536 36,000  Level Oakland Center
Tue 02:43:05 PM 38.0428 -118.0025 261° West 467 537 36,000  Level Oakland Center
Tue 02:44:07 PM 38.0211 -118.1650 260° West 467 537 36,000  Level Oakland Center
Tue 02:45:08 PM 38.0008 -118.3267 261° West 466 536 36,000  Level Oakland Center
Tue 02:46:10 PM 37.9789 -118.4900 260° West 468 539 36,000  Level Oakland Center
Tue 02:47:11 PM 37.9561 -118.6525 260° West 470 541 36,000  Level Oakland Center
Tue 02:48:13 PM 37.9361 -118.8156 261° West 469 540 36,000  Level Oakland Center
Tue 02:49:15 PM 37.9150 -118.9781 261° West 469 540 36,000  Level Oakland Center
Tue 02:50:16 PM 37.8881 -119.1700 260° West 472 543 36,000  Level Oakland Center
Tue 02:51:18 PM 37.8661 -119.3344 260° West 474 545 36,000 -98 Level Oakland Center
Tue 02:52:19 PM 37.8431 -119.4975 260° West 472 543 35,800 -585 Descending Oakland Center
Tue 02:53:21 PM 37.8197 -119.6608 260° West 471 542 34,800 -878 Descending Oakland Center
Tue 02:54:22 PM 37.7956 -119.8258 260° West 476 548 34,000 -390 Descending Oakland Center
Tue 02:55:24 PM 37.7722 -119.9931 260° West 480 552 34,000 -878 Level Oakland Center
Tue 02:56:25 PM 37.7483 -120.1564 260° West 475 547 32,200 -976 Descending Oakland Center
Tue 02:57:27 PM 37.7244 -120.3183 259° West 469 540 32,000 -341 Descending Oakland Center
Tue 02:58:28 PM 37.6992 -120.4814 259° West 472 543 31,500 -1,951 Descending Oakland Center
Tue 02:59:30 PM 37.6719 -120.6675 260° West 450 518 28,000 -3,073 Descending Oakland Center
Tue 03:00:31 PM 37.6506 -120.8103 259° West 422 486 25,200 -2,927 Descending Oakland Center
Tue 03:01:33 PM 37.6289 -120.9481 259° West 405 466 22,000 -2,927 Descending Oakland Center
Tue 03:02:34 PM 37.6108 -121.0814 260° West 389 448 19,200 -2,592 Descending Oakland Center
Tue 03:03:38 PM 37.5500 -121.1833 233° Southwest 330 380 16,600 -2,323 Descending Northern Cal TRACON
Tue 03:04:38 PM 37.5000 -121.2833 238° Southwest 343 395 14,400 -1,850 Descending Northern Cal TRACON
Tue 03:05:38 PM 37.5167 -121.4000 280° West 331 381 12,900 -1,450 Descending Northern Cal TRACON
Tue 03:06:38 PM 37.5333 -121.5000 282° West 322 371 11,500 -950 Descending Northern Cal TRACON
Tue 03:07:38 PM 37.5500 -121.6167 280° West 320 368 11,000 -550 Descending Northern Cal TRACON
Tue 03:08:38 PM 37.5333 -121.7000 256° West 285 328 10,400 -1,050 Descending Northern Cal TRACON
Tue 03:09:38 PM 37.5000 -121.8000 247° West 263 303 8,900 -1,200 Descending Northern Cal TRACON
Tue 03:10:38 PM 37.4833 -121.8833 256° West 252 290 8,000 -1,053 Descending Northern Cal TRACON
Tue 03:11:32 PM 37.5000 -121.9500 288° West 243 280 6,900 -1,316 Descending Northern Cal TRACON
Tue 03:12:32 PM 37.5167 -122.0333 284° West 244 281 5,500 -1,550 Descending Northern Cal TRACON
Tue 03:13:32 PM 37.5333 -122.1167 284° West 224 258 3,800 -1,700 Descending Northern Cal TRACON

Login

Don't have an account? Register now (free) for customized features, flight alerts, and more!